Time;durP1;ratioP1;P1;durP2;ratioP2;P2;SDS_P1;SDS_P2;PMS_P1;PMS_P2;Temp;Humidity;BMP_temperature;BMP_pressure;BME280_temperature;BME280_humidity;BME280_pressure;Samples;Min_cycle;Max_cycle;Signal;HPM_P1;HPM_P2
2021/04/05 00:00:28;;;;;;;10.68;4.38;;;2.50;99.90;;;;;;5062009;28;20039;-74
2021/04/05 00:02:55;;;;;;;10.40;4.13;;;2.50;99.90;;;;;;5061572;28;20530;-74
2021/04/05 00:05:29;;;;;;;13.15;4.65;;;2.50;99.90;;;;;;5059232;28;20040;-74
2021/04/05 00:07:55;;;;;;;9.13;4.43;;;2.50;99.90;;;;;;5061027;28;20120;-74
2021/04/05 00:10:28;;;;;;;11.10;4.50;;;2.60;99.90;;;;;;5063154;28;20427;-74
2021/04/05 00:12:56;;;;;;;10.60;4.47;;;2.50;99.90;;;;;;5063284;28;20384;-74
2021/04/05 00:15:22;;;;;;;10.85;4.15;;;2.50;99.90;;;;;;5054948;28;20029;-74
2021/04/05 00:17:48;;;;;;;14.13;5.00;;;2.50;99.90;;;;;;5059670;28;20506;-74
2021/04/05 00:20:22;;;;;;;11.85;4.85;;;2.60;99.90;;;;;;5062934;28;20035;-74
2021/04/05 00:22:48;;;;;;;15.63;6.03;;;2.70;99.90;;;;;;5092668;28;20523;-73
2021/04/05 00:25:14;;;;;;;12.82;4.80;;;2.70;99.90;;;;;;5061587;28;20040;-73
2021/04/05 00:27:41;;;;;;;9.70;4.40;;;2.70;99.90;;;;;;5062792;28;20017;-74
2021/04/05 00:30:34;;;;;;;14.80;4.88;;;2.80;99.90;;;;;;5061643;28;20033;-74
2021/04/05 00:33:01;;;;;;;10.63;4.50;;;2.80;99.90;;;;;;5056211;28;20045;-74
2021/04/05 00:35:29;;;;;;;13.50;5.03;;;2.80;99.90;;;;;;5062337;28;20042;-74
2021/04/05 00:37:56;;;;;;;10.50;4.57;;;2.80;99.90;;;;;;5062448;28;20024;-74
2021/04/05 00:40:42;;;;;;;13.32;4.85;;;2.80;99.90;;;;;;5057407;28;20108;-74
2021/04/05 00:43:11;;;;;;;13.20;4.88;;;2.80;99.90;;;;;;5059155;28;20124;-74
2021/04/05 00:45:38;;;;;;;7.85;4.25;;;2.70;99.90;;;;;;5060846;28;20068;-74
2021/04/05 00:48:05;;;;;;;9.57;4.35;;;2.70;99.90;;;;;;5061914;28;20556;-74
2021/04/05 00:50:33;;;;;;;12.77;4.45;;;2.80;99.90;;;;;;5060163;28;20033;-74
2021/04/05 00:53:05;;;;;;;11.43;5.05;;;2.80;99.90;;;;;;5059187;28;20051;-74
2021/04/05 00:55:31;;;;;;;12.05;4.70;;;2.80;99.90;;;;;;5061644;28;20059;-74
2021/04/05 00:57:58;;;;;;;11.90;5.78;;;2.90;99.90;;;;;;5060703;28;20701;-73
2021/04/05 01:00:40;;;;;;;14.38;6.45;;;2.90;99.90;;;;;;5055550;28;20106;-73
2021/04/05 01:03:08;;;;;;;18.00;5.97;;;3.00;99.90;;;;;;5054172;28;20067;-73
2021/04/05 01:05:34;;;;;;;11.57;5.70;;;3.00;99.90;;;;;;5060767;28;20041;-74
2021/04/05 01:08:01;;;;;;;14.88;5.43;;;3.00;99.90;;;;;;5059755;28;20017;-74
2021/04/05 01:10:27;;;;;;;18.20;5.28;;;3.00;99.90;;;;;;5061370;28;20027;-74
2021/04/05 01:12:52;;;;;;;10.07;5.18;;;3.10;99.90;;;;;;5058074;28;20032;-74
2021/04/05 01:15:19;;;;;;;10.23;5.90;;;3.10;99.90;;;;;;5054338;28;20119;-74
2021/04/05 01:17:47;;;;;;;14.07;5.80;;;3.10;99.90;;;;;;5051483;28;20044;-74
2021/04/05 01:20:14;;;;;;;10.45;5.63;;;3.10;99.90;;;;;;5050285;28;20073;-74
2021/04/05 01:22:45;;;;;;;15.55;6.30;;;3.10;99.90;;;;;;5051197;28;20041;-74
2021/04/05 01:25:13;;;;;;;15.07;5.47;;;3.10;99.90;;;;;;5051566;28;20036;-74
2021/04/05 01:27:40;;;;;;;13.55;5.97;;;3.10;99.90;;;;;;5050867;28;20538;-74
2021/04/05 01:30:10;;;;;;;14.65;6.15;;;3.10;99.90;;;;;;5051433;28;20057;-74
2021/04/05 01:32:36;;;;;;;12.80;6.60;;;3.00;99.90;;;;;;5065944;28;20164;-74
2021/04/05 01:35:03;;;;;;;17.15;6.80;;;3.00;99.90;;;;;;5083636;28;20498;-74
2021/04/05 01:37:28;;;;;;;10.57;6.05;;;3.00;99.90;;;;;;5050793;28;20056;-74
2021/04/05 01:39:54;;;;;;;12.63;5.45;;;3.00;99.90;;;;;;5051238;28;20060;-74
2021/04/05 01:42:20;;;;;;;14.20;6.18;;;2.80;99.90;;;;;;5050731;28;20396;-74
2021/04/05 01:44:45;;;;;;;14.80;6.05;;;2.80;99.90;;;;;;5051211;28;20044;-74
2021/04/05 01:47:11;;;;;;;18.55;5.93;;;2.90;99.90;;;;;;5050784;28;20053;-74
2021/04/05 01:49:40;;;;;;;18.33;6.10;;;2.80;99.90;;;;;;5051018;28;20036;-74
2021/04/05 01:52:14;;;;;;;15.43;6.60;;;2.80;99.90;;;;;;5049157;28;20495;-74
2021/04/05 01:54:40;;;;;;;13.93;6.47;;;2.80;99.90;;;;;;5050488;28;20126;-74
2021/04/05 01:57:10;;;;;;;16.08;7.40;;;2.80;99.90;;;;;;5050137;28;20486;-74
2021/04/05 01:59:38;;;;;;;17.55;6.60;;;2.80;99.90;;;;;;5051111;28;20064;-74
2021/04/05 02:02:05;;;;;;;14.57;6.20;;;2.80;99.90;;;;;;5050277;28;20033;-74
2021/04/05 02:04:35;;;;;;;15.80;6.50;;;2.80;99.90;;;;;;5050837;28;20071;-74
2021/04/05 02:07:01;;;;;;;17.25;6.50;;;2.80;99.90;;;;;;5050089;28;20025;-74
2021/04/05 02:09:27;;;;;;;13.48;6.93;;;2.80;99.90;;;;;;5050712;28;20694;-74
2021/04/05 02:11:53;;;;;;;17.65;6.13;;;2.90;99.90;;;;;;5050137;28;20116;-74
2021/04/05 02:14:19;;;;;;;11.70;5.65;;;2.80;99.90;;;;;;5050439;28;20041;-74
2021/04/05 02:16:45;;;;;;;15.55;6.22;;;2.80;99.90;;;;;;5049235;28;20112;-74
2021/04/05 02:19:15;;;;;;;12.35;6.70;;;2.80;99.90;;;;;;5050363;28;20028;-74
2021/04/05 02:21:45;;;;;;;16.65;6.95;;;2.80;99.90;;;;;;5049770;28;20044;-74
2021/04/05 02:24:13;;;;;;;12.52;5.80;;;2.70;99.90;;;;;;5050424;28;20037;-74
2021/04/05 02:26:40;;;;;;;17.85;6.28;;;2.70;99.90;;;;;;5048595;28;20079;-74
2021/04/05 02:29:06;;;;;;;16.08;6.60;;;2.70;99.90;;;;;;5050532;28;20086;-74
2021/04/05 02:31:34;;;;;;;13.00;6.20;;;2.70;99.90;;;;;;5049529;28;20511;-74
2021/04/05 02:34:00;;;;;;;18.35;6.93;;;2.70;99.90;;;;;;5050364;28;20032;-74
2021/04/05 02:36:32;;;;;;;13.38;6.03;;;2.60;99.90;;;;;;5048571;28;20037;-74
2021/04/05 02:39:00;;;;;;;14.77;6.93;;;2.60;99.90;;;;;;5050412;28;20021;-74
2021/04/05 02:41:29;;;;;;;13.15;6.13;;;2.60;99.90;;;;;;5049565;28;20124;-74
2021/04/05 02:43:55;;;;;;;11.68;6.20;;;2.50;99.90;;;;;;5050243;28;20506;-74
2021/04/05 02:46:26;;;;;;;13.23;5.85;;;2.40;99.90;;;;;;5049562;28;20033;-74
2021/04/05 02:48:54;;;;;;;16.20;6.72;;;2.40;99.90;;;;;;5050372;28;20060;-74
2021/04/05 02:51:20;;;;;;;12.05;6.53;;;2.40;99.90;;;;;;5049404;28;20052;-74
2021/04/05 02:53:53;;;;;;;15.30;6.63;;;2.40;99.90;;;;;;5050040;28;20528;-74
2021/04/05 02:56:19;;;;;;;13.48;6.63;;;2.30;99.90;;;;;;5049294;28;20045;-74
2021/04/05 02:58:48;;;;;;;24.50;6.97;;;2.30;99.90;;;;;;5048965;28;20028;-74
2021/04/05 03:01:14;;;;;;;13.82;6.32;;;2.30;99.90;;;;;;5049329;28;20087;-74
2021/04/05 03:03:42;;;;;;;12.70;6.47;;;2.30;99.90;;;;;;5049456;28;20031;-74
2021/04/05 03:06:48;;;;;;;12.63;6.22;;;2.40;99.90;;;;;;5050124;28;20128;-74
2021/04/05 03:09:14;;;;;;;15.07;7.97;;;2.30;99.90;;;;;;5054602;28;20059;-74
2021/04/05 03:11:43;;;;;;;23.15;7.40;;;2.40;99.90;;;;;;5052008;28;20539;-74
2021/04/05 03:14:10;;;;;;;16.17;7.40;;;2.40;99.90;;;;;;5054027;28;20040;-74
2021/04/05 03:16:39;;;;;;;19.27;7.38;;;2.40;99.90;;;;;;5053164;28;20033;-74
2021/04/05 03:19:07;;;;;;;16.33;6.82;;;2.50;99.90;;;;;;5053831;28;20635;-74
2021/04/05 03:21:33;;;;;;;19.13;7.82;;;2.40;99.90;;;;;;5067480;28;20120;-74
2021/04/05 03:24:00;;;;;;;19.38;7.35;;;2.50;99.90;;;;;;5073727;28;20103;-74
2021/04/05 03:26:26;;;;;;;14.38;7.28;;;2.50;99.90;;;;;;5073025;28;20040;-74
2021/04/05 03:28:52;;;;;;;21.25;6.75;;;2.50;99.90;;;;;;5073970;28;20411;-74
2021/04/05 03:31:20;;;;;;;16.40;7.57;;;2.50;99.90;;;;;;5055251;28;20033;-74
2021/04/05 03:33:57;;;;;;;16.90;7.32;;;2.40;99.90;;;;;;5053702;28;20029;-74
2021/04/05 03:36:29;;;;;;;14.85;7.30;;;2.40;99.90;;;;;;5053158;28;20490;-74
2021/04/05 03:38:57;;;;;;;20.75;7.65;;;2.30;99.90;;;;;;5053609;28;20174;-74
2021/04/05 03:42:00;;;;;;;17.38;7.15;;;2.30;99.90;;;;;;5052930;28;20104;-74
2021/04/05 03:44:48;;;;;;;19.95;6.68;;;2.30;99.90;;;;;;5052649;28;20049;-74
2021/04/05 03:47:36;;;;;;;18.52;7.32;;;2.30;99.90;;;;;;5052519;28;20040;-74
2021/04/05 03:50:20;;;;;;;11.75;6.55;;;2.40;99.90;;;;;;5085246;28;20402;-74
2021/04/05 03:52:56;;;;;;;18.67;7.53;;;2.40;99.90;;;;;;5050571;28;20028;-74
2021/04/05 03:55:27;;;;;;;14.95;7.55;;;2.40;99.90;;;;;;5052619;28;20487;-74
2021/04/05 03:57:57;;;;;;;17.33;6.75;;;2.40;99.90;;;;;;5052774;28;20033;-74
2021/04/05 04:00:25;;;;;;;16.42;6.95;;;2.40;99.90;;;;;;5053039;28;20119;-74
2021/04/05 04:02:53;;;;;;;19.40;7.50;;;2.40;99.90;;;;;;5052759;28;20072;-74
2021/04/05 04:05:29;;;;;;;16.45;6.65;;;2.50;99.90;;;;;;5053169;28;20029;-74
2021/04/05 04:10:49;;;;;;;19.10;7.05;;;2.50;99.90;;;;;;5046534;28;20044;-74
2021/04/05 04:13:16;;;;;;;19.42;6.85;;;2.40;99.90;;;;;;5035180;28;20033;-74
2021/04/05 04:15:43;;;;;;;16.77;7.25;;;2.50;99.90;;;;;;5051408;28;20041;-74
2021/04/05 04:18:10;;;;;;;13.05;6.10;;;2.50;99.90;;;;;;5049632;28;20037;-74
2021/04/05 04:20:37;;;;;;;14.15;7.15;;;2.50;99.90;;;;;;5050964;28;20558;-74
2021/04/05 04:23:03;;;;;;;20.23;7.45;;;2.60;99.90;;;;;;5051657;28;20037;-74
2021/04/05 04:25:29;;;;;;;15.35;6.40;;;2.60;99.90;;;;;;5052300;28;20043;-74
2021/04/05 04:27:55;;;;;;;17.70;6.63;;;2.70;99.90;;;;;;5052327;28;20025;-74
2021/04/05 04:30:31;;;;;;;15.50;7.50;;;2.70;99.90;;;;;;5052455;28;20642;-74
2021/04/05 04:33:08;;;;;;;13.43;7.10;;;2.80;99.90;;;;;;5052680;28;20029;-74
2021/04/05 04:35:35;;;;;;;15.98;7.07;;;2.80;99.90;;;;;;5052720;28;20033;-74
2021/04/05 04:38:02;;;;;;;14.10;7.32;;;2.90;99.90;;;;;;5052091;28;20160;-74
2021/04/05 04:40:30;;;;;;;12.13;6.90;;;3.00;99.90;;;;;;5050553;28;20064;-74
2021/04/05 04:42:58;;;;;;;16.73;7.32;;;3.00;99.90;;;;;;5052499;28;20051;-74
2021/04/05 04:45:23;;;;;;;15.23;7.38;;;3.00;99.90;;;;;;5052046;28;20028;-74
2021/04/05 04:47:56;;;;;;;16.00;7.00;;;3.10;99.90;;;;;;5050457;28;20614;-74
2021/04/05 04:50:24;;;;;;;15.48;7.63;;;3.10;99.90;;;;;;5050906;28;20453;-74
2021/04/05 04:52:50;;;;;;;15.55;7.22;;;3.10;99.90;;;;;;5050551;28;20042;-74
2021/04/05 04:55:16;;;;;;;13.10;6.82;;;3.20;99.90;;;;;;5051880;28;20025;-74
2021/04/05 04:57:43;;;;;;;12.82;6.45;;;3.30;99.90;;;;;;5051405;28;20059;-74
2021/04/05 05:00:09;;;;;;;13.10;7.57;;;3.30;99.90;;;;;;5052169;28;21005;-74
2021/04/05 05:02:39;;;;;;;14.40;6.82;;;3.40;99.90;;;;;;5038085;28;20045;-74
2021/04/05 05:05:07;;;;;;;17.67;7.22;;;3.40;99.90;;;;;;5066800;28;20033;-74
2021/04/05 05:07:34;;;;;;;12.10;6.75;;;3.50;99.90;;;;;;5051287;28;20025;-74
2021/04/05 05:10:00;;;;;;;16.33;6.95;;;3.60;99.90;;;;;;5050589;28;20447;-74
2021/04/05 05:12:26;;;;;;;16.73;7.45;;;3.70;99.90;;;;;;5051140;28;20025;-74
2021/04/05 05:14:52;;;;;;;12.75;6.60;;;3.70;99.90;;;;;;5051788;28;20135;-74
2021/04/05 05:17:18;;;;;;;13.30;7.38;;;3.80;99.90;;;;;;5051235;28;20033;-74
2021/04/05 05:19:44;;;;;;;15.43;6.80;;;3.80;99.90;;;;;;5051032;28;20419;-74
2021/04/05 05:22:15;;;;;;;13.35;5.88;;;3.80;99.90;;;;;;5049593;28;20037;-74
2021/04/05 05:24:45;;;;;;;15.48;6.07;;;3.90;99.90;;;;;;5083126;28;20044;-74
2021/04/05 05:27:11;;;;;;;14.30;6.63;;;4.00;99.90;;;;;;5050820;28;20041;-74
2021/04/05 05:29:41;;;;;;;11.02;6.78;;;4.00;99.90;;;;;;5050876;28;20051;-74
2021/04/05 05:32:09;;;;;;;12.93;6.72;;;4.00;99.90;;;;;;5050616;28;20033;-74
2021/04/05 05:34:35;;;;;;;15.77;7.20;;;4.00;99.90;;;;;;5051276;28;20029;-74
2021/04/05 05:37:02;;;;;;;18.40;6.65;;;3.90;99.90;;;;;;5050188;28;20431;-75
2021/04/05 05:39:28;;;;;;;15.43;7.05;;;4.00;99.90;;;;;;5051108;28;20048;-74
2021/04/05 05:42:12;;;;;;;12.15;6.40;;;4.00;99.90;;;;;;5049435;28;20036;-74
2021/04/05 05:44:44;;;;;;;13.77;7.03;;;4.10;99.90;;;;;;5051038;28;20395;-74
2021/04/05 05:47:18;;;;;;;15.20;7.13;;;4.10;99.90;;;;;;5050707;28;20025;-74
2021/04/05 05:50:20;;;;;;;11.10;5.68;;;4.10;99.90;;;;;;5051405;28;20025;-74
2021/04/05 05:52:54;;;;;;;13.05;6.68;;;4.20;99.90;;;;;;5049370;28;20036;-74
2021/04/05 05:55:41;;;;;;;15.20;7.25;;;4.30;99.90;;;;;;5049765;28;20040;-74
2021/04/05 05:58:56;;;;;;;16.55;6.68;;;4.30;99.90;;;;;;5050578;28;20029;-74
2021/04/05 06:01:46;;;;;;;11.95;6.80;;;4.40;99.90;;;;;;5048464;28;20049;-74
2021/04/05 06:04:33;;;;;;;13.40;6.30;;;4.40;99.90;;;;;;5068332;28;20028;-74
2021/04/05 06:07:22;;;;;;;13.52;6.43;;;4.50;99.90;;;;;;5070445;28;20032;-74
2021/04/05 06:10:01;;;;;;;11.93;6.20;;;4.60;99.90;;;;;;5055756;28;20492;-74
2021/04/05 06:12:53;;;;;;;13.35;7.00;;;4.70;99.90;;;;;;5035987;28;20024;-74
2021/04/05 06:15:25;;;;;;;10.65;5.25;;;4.70;99.90;;;;;;5064872;28;20033;-74
2021/04/05 06:18:28;;;;;;;14.07;5.80;;;4.80;99.90;;;;;;5056821;28;20543;-73
2021/04/05 06:21:20;;;;;;;13.13;6.00;;;4.90;99.90;;;;;;5057418;28;20029;-74
2021/04/05 06:23:49;;;;;;;18.33;6.50;;;4.90;99.90;;;;;;5057375;28;20027;-74
2021/04/05 06:26:33;;;;;;;13.15;6.07;;;5.00;99.90;;;;;;5058284;28;20044;-74
2021/04/05 06:29:27;;;;;;;10.10;4.45;;;5.10;99.90;;;;;;5060076;28;20028;-74
2021/04/05 06:32:15;;;;;;;9.52;5.32;;;5.20;99.90;;;;;;5056534;28;20111;-74
2021/04/05 06:34:46;;;;;;;12.88;4.70;;;5.30;99.90;;;;;;5059374;28;20028;-73
2021/04/05 06:37:30;;;;;;;12.77;5.95;;;5.30;99.90;;;;;;5057892;28;20107;-74
2021/04/05 06:40:13;;;;;;;13.63;5.63;;;5.40;99.90;;;;;;5057931;28;20044;-74
2021/04/05 06:43:00;;;;;;;11.18;5.22;;;5.40;99.90;;;;;;5057849;28;20056;-73
2021/04/05 06:45:43;;;;;;;13.27;5.50;;;5.50;99.90;;;;;;5059105;28;20550;-74
2021/04/05 06:48:46;;;;;;;12.73;5.60;;;5.60;99.90;;;;;;5060229;28;20028;-74
2021/04/05 06:51:23;;;;;;;8.57;4.47;;;5.70;99.90;;;;;;5055078;28;20039;-74
2021/04/05 06:54:30;;;;;;;13.30;5.38;;;5.80;99.90;;;;;;5061460;28;20020;-74
2021/04/05 06:57:12;;;;;;;11.70;4.78;;;6.00;99.90;;;;;;5044809;28;20047;-74
2021/04/05 06:59:56;;;;;;;8.43;4.65;;;6.20;99.90;;;;;;5055209;28;20029;-74
2021/04/05 07:02:43;;;;;;;11.60;4.85;;;6.30;99.90;;;;;;5059007;28;20059;-74
2021/04/05 07:05:17;;;;;;;12.10;4.60;;;6.50;99.90;;;;;;5092159;28;20032;-74
2021/04/05 07:07:46;;;;;;;12.98;4.93;;;6.60;99.90;;;;;;5060706;28;20096;-73
2021/04/05 07:10:26;;;;;;;9.90;4.65;;;6.70;99.90;;;;;;5053188;28;20076;-73
2021/04/05 07:13:06;;;;;;;11.90;4.90;;;6.80;99.90;;;;;;5057182;28;20033;-73
2021/04/05 07:16:14;;;;;;;10.43;4.70;;;6.90;99.90;;;;;;5068803;28;20131;-73
2021/04/05 07:19:09;;;;;;;11.50;5.15;;;6.90;99.90;;;;;;5007647;28;20041;-73
2021/04/05 07:21:49;;;;;;;9.55;4.82;;;7.00;99.90;;;;;;5003010;28;20030;-73
2021/04/05 07:24:32;;;;;;;11.15;4.53;;;7.00;99.90;;;;;;5037347;28;20045;-73
2021/04/05 07:27:08;;;;;;;8.68;4.43;;;7.10;99.90;;;;;;5050100;28;19935;-73
2021/04/05 07:30:05;;;;;;;9.45;4.50;;;7.10;99.90;;;;;;5056243;28;20021;-73
2021/04/05 07:32:57;;;;;;;10.20;4.45;;;7.20;99.90;;;;;;5089011;28;20047;-73
2021/04/05 07:36:00;;;;;;;11.98;4.80;;;7.30;99.90;;;;;;5052508;28;20108;-73
2021/04/05 07:38:43;;;;;;;14.02;4.82;;;7.30;99.90;;;;;;5052025;28;20403;-74
2021/04/05 07:41:27;;;;;;;12.02;4.25;;;7.40;99.90;;;;;;5057469;28;20384;-72
2021/04/05 07:44:08;;;;;;;12.48;4.57;;;7.40;99.90;;;;;;5055902;28;20060;-73
2021/04/05 07:46:45;;;;;;;10.23;4.25;;;7.40;99.90;;;;;;5055789;28;20124;-73
2021/04/05 07:49:19;;;;;;;15.95;4.22;;;7.50;99.90;;;;;;5091341;28;20028;-73
2021/04/05 07:52:04;;;;;;;13.93;4.53;;;7.50;99.90;;;;;;5052740;28;20495;-73
2021/04/05 07:54:33;;;;;;;8.02;4.45;;;7.60;99.90;;;;;;5059554;28;20044;-73
2021/04/05 07:57:10;;;;;;;9.82;4.90;;;7.60;99.90;;;;;;5059800;28;20021;-73
2021/04/05 08:00:07;;;;;;;13.65;5.43;;;7.70;99.90;;;;;;5063022;28;20048;-73
2021/04/05 08:03:05;;;;;;;14.40;4.65;;;7.70;99.90;;;;;;5061659;28;20075;-73
2021/04/05 08:05:53;;;;;;;9.90;4.30;;;7.80;99.90;;;;;;5061552;28;20036;-73
2021/04/05 08:08:38;;;;;;;9.85;4.28;;;7.80;99.90;;;;;;5060245;28;20033;-73
2021/04/05 08:11:22;;;;;;;13.82;4.97;;;7.90;99.90;;;;;;5063806;28;20029;-73
2021/04/05 08:14:15;;;;;;;16.95;4.93;;;7.90;99.90;;;;;;5059828;28;20023;-73
2021/04/05 08:16:59;;;;;;;10.02;4.20;;;8.00;99.90;;;;;;5056714;28;20052;-73
2021/04/05 08:19:55;;;;;;;10.07;4.55;;;8.20;99.90;;;;;;5060490;28;20040;-73
2021/04/05 08:23:02;;;;;;;12.77;4.32;;;8.20;99.90;;;;;;5062984;28;20029;-73
2021/04/05 08:26:25;;;;;;;10.23;4.63;;;8.40;99.90;;;;;;5059594;28;20055;-73
2021/04/05 08:29:23;;;;;;;12.73;4.70;;;8.60;99.90;;;;;;5057622;28;20029;-73
2021/04/05 08:32:04;;;;;;;13.80;4.53;;;8.70;99.90;;;;;;5060323;28;20503;-73
2021/04/05 08:34:38;;;;;;;10.38;4.55;;;8.80;99.90;;;;;;5065910;28;20078;-73
2021/04/05 08:37:25;;;;;;;8.38;4.95;;;8.90;99.80;;;;;;5095976;28;20023;-72
2021/04/05 08:40:04;;;;;;;14.88;4.55;;;8.90;99.90;;;;;;5055352;28;20507;-73
2021/04/05 08:42:32;;;;;;;11.52;4.35;;;9.00;99.90;;;;;;5053024;28;20017;-73
2021/04/05 08:45:15;;;;;;;10.10;4.18;;;9.00;99.60;;;;;;5066167;28;20086;-74
2021/04/05 08:47:46;;;;;;;11.07;4.70;;;9.10;98.60;;;;;;5064663;28;20033;-73
2021/04/05 08:50:15;;;;;;;9.93;4.20;;;9.10;98.30;;;;;;5057573;28;20025;-74
2021/04/05 08:52:47;;;;;;;13.50;4.40;;;9.20;98.40;;;;;;5061703;28;20021;-73
2021/04/05 08:55:20;;;;;;;9.23;4.10;;;9.30;98.40;;;;;;5064933;28;20468;-73
2021/04/05 08:58:21;;;;;;;11.82;4.38;;;9.30;96.80;;;;;;5063156;28;20052;-73
2021/04/05 09:00:49;;;;;;;9.85;4.53;;;9.30;97.20;;;;;;5055645;28;20483;-73
2021/04/05 09:03:21;;;;;;;14.98;4.65;;;9.20;96.60;;;;;;5059041;28;20396;-73
2021/04/05 09:05:49;;;;;;;8.45;3.95;;;9.20;96.40;;;;;;5057195;28;20033;-73
2021/04/05 09:08:18;;;;;;;11.80;4.03;;;9.30;96.00;;;;;;5053084;28;20027;-73
2021/04/05 09:11:02;;;;;;;7.20;3.60;;;9.30;95.40;;;;;;5051980;28;20055;-73
2021/04/05 09:13:35;;;;;;;8.40;4.28;;;9.30;94.80;;;;;;5056312;28;20480;-73
2021/04/05 09:16:13;;;;;;;12.23;4.53;;;9.30;94.40;;;;;;5050202;28;20036;-73
2021/04/05 09:19:14;;;;;;;7.82;3.53;;;9.40;95.00;;;;;;5054050;28;20036;-73
2021/04/05 09:22:18;;;;;;;9.55;3.70;;;9.40;95.10;;;;;;5085752;28;20029;-73
2021/04/05 09:24:49;;;;;;;10.90;4.60;;;9.50;95.30;;;;;;5075147;28;20104;-73
2021/04/05 09:27:53;;;;;;;10.43;3.70;;;9.50;94.60;;;;;;5055401;28;20451;-73
2021/04/05 09:30:49;;;;;;;10.43;4.78;;;9.60;94.20;;;;;;5087232;28;20136;-74
2021/04/05 09:33:44;;;;;;;11.17;4.10;;;9.60;95.20;;;;;;5054054;28;20021;-74
2021/04/05 09:36:21;;;;;;;14.77;4.38;;;9.70;94.50;;;;;;5052936;28;20021;-73
2021/04/05 09:39:10;;;;;;;9.60;3.55;;;9.80;93.40;;;;;;5054670;28;20561;-73
2021/04/05 09:42:02;;;;;;;8.93;3.90;;;10.00;92.10;;;;;;5051532;28;20107;-73
2021/04/05 09:44:39;;;;;;;9.82;4.30;;;10.10;93.40;;;;;;5052946;28;20033;-73
2021/04/05 09:47:32;;;;;;;10.27;3.90;;;10.10;93.70;;;;;;5052409;28;20021;-72
2021/04/05 09:50:26;;;;;;;13.02;4.38;;;10.10;93.10;;;;;;5056834;28;20082;-72
2021/04/05 09:53:13;;;;;;;17.27;4.80;;;10.00;91.90;;;;;;5053059;28;20021;-74
2021/04/05 09:55:49;;;;;;;13.45;4.85;;;9.90;90.60;;;;;;5054422;28;20028;-73
2021/04/05 09:58:23;;;;;;;9.07;3.80;;;9.60;91.40;;;;;;5054384;28;20028;-73
2021/04/05 10:01:03;;;;;;;10.55;4.18;;;9.50;91.50;;;;;;5092149;28;20040;-73
2021/04/05 10:03:30;;;;;;;10.30;4.40;;;9.40;92.30;;;;;;5056058;28;20056;-73
2021/04/05 10:05:57;;;;;;;12.75;4.80;;;9.40;92.00;;;;;;5056075;28;20111;-73
2021/04/05 10:08:25;;;;;;;10.00;4.43;;;9.30;92.50;;;;;;5053551;28;20048;-74
2021/04/05 10:10:53;;;;;;;12.90;4.88;;;9.30;93.10;;;;;;5055710;28;20357;-73
2021/04/05 10:13:22;;;;;;;14.05;4.80;;;9.20;92.70;;;;;;5052034;28;20036;-74
2021/04/05 10:15:52;;;;;;;13.40;4.90;;;9.20;92.40;;;;;;5046544;28;20037;-73
2021/04/05 10:18:19;;;;;;;13.48;5.93;;;9.20;93.30;;;;;;5053812;28;20139;-73
2021/04/05 10:20:50;;;;;;;14.85;5.88;;;9.20;93.30;;;;;;5045588;28;20116;-74
2021/04/05 10:23:23;;;;;;;10.05;4.97;;;9.30;93.00;;;;;;5046063;28;20537;-73
2021/04/05 10:26:01;;;;;;;8.43;4.18;;;9.30;93.60;;;;;;5053177;28;20032;-73
2021/04/05 10:28:34;;;;;;;16.80;5.72;;;9.40;92.80;;;;;;5052526;28;20028;-73
2021/04/05 10:31:04;;;;;;;12.10;4.85;;;9.50;93.50;;;;;;5067413;28;20036;-73
2021/04/05 10:33:36;;;;;;;15.30;5.70;;;9.60;93.40;;;;;;5052516;28;20089;-73
2021/04/05 10:36:08;;;;;;;9.23;4.32;;;9.70;91.70;;;;;;5057628;28;20072;-73
2021/04/05 10:38:38;;;;;;;16.17;5.07;;;9.80;92.70;;;;;;5054819;28;20024;-73
2021/04/05 10:41:09;;;;;;;11.32;5.18;;;9.70;93.30;;;;;;5060799;28;20039;-73
2021/04/05 10:43:51;;;;;;;8.63;4.85;;;9.70;91.60;;;;;;5067027;28;20051;-73
2021/04/05 10:46:32;;;;;;;13.45;5.55;;;9.50;92.70;;;;;;5058813;28;20086;-73
2021/04/05 10:49:18;;;;;;;9.63;4.75;;;9.50;92.90;;;;;;5046318;28;20120;-73
2021/04/05 10:51:48;;;;;;;9.75;5.13;;;9.40;93.00;;;;;;5047420;28;20100;-73
2021/04/05 10:54:33;;;;;;;9.50;5.25;;;9.40;93.10;;;;;;5049732;28;20029;-73
2021/04/05 10:57:27;;;;;;;11.15;5.20;;;9.30;93.00;;;;;;5057498;28;20016;-73
2021/04/05 10:59:56;;;;;;;14.95;5.32;;;9.30;93.60;;;;;;5048332;28;20403;-73
2021/04/05 11:02:39;;;;;;;13.43;5.70;;;9.30;93.40;;;;;;5055177;28;20098;-73
2021/04/05 11:05:05;;;;;;;10.25;5.35;;;9.30;93.10;;;;;;5053043;28;20107;-73
2021/04/05 11:07:31;;;;;;;15.32;6.55;;;9.30;93.70;;;;;;5044247;28;20905;-73
2021/04/05 11:10:01;;;;;;;14.00;6.32;;;9.30;92.90;;;;;;5047777;28;20025;-73
2021/04/05 11:12:37;;;;;;;10.07;5.55;;;9.30;93.60;;;;;;5040291;28;20044;-74
2021/04/05 11:15:19;;;;;;;11.93;6.40;;;9.20;93.30;;;;;;5045861;28;20475;-73
2021/04/05 11:17:48;;;;;;;10.43;5.90;;;9.20;93.90;;;;;;5080803;28;20108;-73
2021/04/05 11:20:18;;;;;;;16.30;6.00;;;9.20;93.70;;;;;;5049737;28;20029;-73
2021/04/05 11:22:45;;;;;;;16.40;6.88;;;9.20;94.30;;;;;;5078700;28;20041;-73
2021/04/05 11:25:11;;;;;;;15.00;6.85;;;9.20;93.80;;;;;;5041291;28;20039;-74
2021/04/05 11:27:48;;;;;;;13.52;6.03;;;9.20;93.80;;;;;;5045100;28;20036;-74
2021/04/05 11:30:23;;;;;;;14.25;5.93;;;9.10;94.00;;;;;;5051528;28;20025;-74
2021/04/05 11:32:51;;;;;;;18.17;7.00;;;9.10;94.60;;;;;;5089659;28;20029;-74
2021/04/05 11:35:20;;;;;;;20.15;6.63;;;9.10;94.30;;;;;;5057846;28;20025;-74
2021/04/05 11:37:48;;;;;;;17.92;7.03;;;9.00;95.00;;;;;;5058277;28;20746;-74
2021/04/05 11:40:19;;;;;;;16.65;6.95;;;9.00;94.80;;;;;;5054841;28;20058;-74
2021/04/05 11:42:48;;;;;;;16.88;7.22;;;8.90;95.10;;;;;;5054945;28;20033;-73
2021/04/05 11:45:19;;;;;;;16.25;6.93;;;8.90;95.00;;;;;;5051631;28;20111;-74
2021/04/05 11:47:49;;;;;;;15.07;6.90;;;8.80;95.20;;;;;;5054628;28;20017;-74
2021/04/05 11:50:18;;;;;;;16.38;7.00;;;8.80;96.30;;;;;;5048911;28;20124;-74
2021/04/05 11:52:46;;;;;;;23.08;7.25;;;8.70;97.60;;;;;;5055242;28;20529;-76
2021/04/05 11:55:20;;;;;;;21.13;8.20;;;8.70;98.80;;;;;;5051267;28;20025;-73
2021/04/05 11:58:03;;;;;;;15.43;7.63;;;8.60;99.90;;;;;;5056188;28;20028;-74
2021/04/05 12:00:38;;;;;;;17.42;7.28;;;8.50;99.90;;;;;;5049295;28;20060;-74
2021/04/05 12:03:09;;;;;;;17.63;7.82;;;8.40;99.90;;;;;;5056901;28;20163;-74
2021/04/05 12:05:40;;;;;;;19.08;9.13;;;8.20;99.90;;;;;;5057666;28;20017;-74
2021/04/05 12:08:10;;;;;;;15.45;7.88;;;8.00;99.90;;;;;;5052985;28;20028;-74
2021/04/05 12:10:40;;;;;;;11.27;5.88;;;7.80;99.90;;;;;;5049904;28;20033;-75
2021/04/05 12:13:14;;;;;;;20.10;8.32;;;7.70;99.90;;;;;;5052144;28;20021;-76
2021/04/05 12:15:42;;;;;;;25.77;9.30;;;7.40;99.90;;;;;;5086630;28;20410;-75
2021/04/05 12:18:09;;;;;;;20.40;8.85;;;7.30;99.90;;;;;;5058346;28;20033;-76
2021/04/05 12:20:36;;;;;;;24.60;9.52;;;7.20;99.90;;;;;;5060926;28;20039;-75
2021/04/05 12:23:15;;;;;;;25.85;9.75;;;7.10;99.90;;;;;;5087896;28;20036;-75
2021/04/05 12:25:44;;;;;;;19.38;9.15;;;7.00;99.90;;;;;;5050917;28;20056;-75
2021/04/05 12:28:12;;;;;;;20.30;9.63;;;6.90;99.90;;;;;;5053175;28;20060;-74
2021/04/05 12:30:40;;;;;;;21.58;10.02;;;6.90;99.90;;;;;;5050671;28;20028;-74
2021/04/05 12:33:09;;;;;;;23.48;9.50;;;6.70;99.90;;;;;;5040335;28;20111;-75
2021/04/05 12:35:36;;;;;;;25.17;11.18;;;6.70;99.90;;;;;;5053893;28;20036;-75
2021/04/05 12:38:05;;;;;;;20.15;10.18;;;6.60;99.90;;;;;;5053142;28;20041;-76
2021/04/05 12:40:36;;;;;;;24.17;10.35;;;6.50;99.90;;;;;;5058939;28;20029;-76
2021/04/05 12:43:10;;;;;;;20.95;10.18;;;6.50;99.90;;;;;;5055119;28;20048;-76
2021/04/05 12:45:50;;;;;;;19.15;9.95;;;6.50;99.90;;;;;;5055031;28;20239;-76
2021/04/05 12:48:28;;;;;;;20.48;9.68;;;6.40;99.90;;;;;;5057510;28;20108;-75
2021/04/05 12:50:59;;;;;;;23.48;10.85;;;6.30;99.90;;;;;;5055637;28;20025;-75
2021/04/05 12:53:29;;;;;;;27.52;11.13;;;6.20;99.90;;;;;;5059039;28;20035;-75
2021/04/05 12:55:57;;;;;;;23.23;11.00;;;6.10;99.90;;;;;;5056770;28;20031;-75
2021/04/05 12:58:28;;;;;;;28.73;11.27;;;6.00;99.90;;;;;;5056819;28;20074;-76
2021/04/05 13:00:54;;;;;;;24.05;11.02;;;6.00;99.90;;;;;;5057749;28;20024;-75
2021/04/05 13:03:37;;;;;;;28.30;11.00;;;5.90;99.90;;;;;;5058025;28;20036;-75
2021/04/05 13:06:04;;;;;;;26.00;11.32;;;5.90;99.90;;;;;;5050945;28;20036;-76
2021/04/05 13:08:48;;;;;;;23.08;10.70;;;5.90;99.90;;;;;;5049047;28;20025;-75
2021/04/05 13:11:20;;;;;;;26.67;10.50;;;5.90;99.90;;;;;;5050529;28;20032;-75
2021/04/05 13:14:02;;;;;;;26.08;10.57;;;5.90;99.90;;;;;;5055876;28;21325;-75
2021/04/05 13:16:32;;;;;;;22.63;11.68;;;5.80;99.90;;;;;;5056007;28;20119;-76
2021/04/05 13:19:23;;;;;;;24.77;10.88;;;5.80;99.90;;;;;;5055754;28;20041;-75
2021/04/05 13:21:50;;;;;;;30.15;11.45;;;5.70;99.90;;;;;;5055227;28;20024;-75
2021/04/05 13:24:25;;;;;;;31.30;11.35;;;5.80;99.90;;;;;;5059486;28;20040;-76
2021/04/05 13:26:54;;;;;;;26.23;12.02;;;5.70;99.90;;;;;;5055630;28;20032;-75
2021/04/05 13:29:23;;;;;;;24.25;10.52;;;5.80;99.90;;;;;;5060519;28;20479;-75